Station Historical Data
Daily Summary for May 19, 2012 Units:  Both    English   Metric
« Previous Day
Next Day »
Daily Weekly Monthly Yearly Custom
  High: Low: Average:
Temperature: 84.9 °F /  29.4 °C 63.0 °F /  17.2 °C 72.8 °F /  22.7 °C
Dew Point: 67.1 °F /  19.5 °C 60.0 °F /  15.6 °C 63 °F /  17.2 °C
Humidity: 92% 47% 73%
Wind Speed: 11.0mph /  17.7km/h - 2.6mph /  4.2km/h
Wind Gust: 13.0mph /  20.9km/h - -
Wind- - SSE
Pressure: 30.09 in /  1018.8 hPa 29.97 in /  1014.8 hPa -
Precipitation: 0.00 in /  0 mm    
Historical Graphs
 
 
Tabular Data for May 19, 2012
Time Temperature Dew Point Pressure Wind Wind Speed Wind Gust Humidity Rainfall Rate (Hourly) Conditions
00:00 66.2 °F /  19 °C 61.9 °F /  16.6 °C 29.97in /  1014.8hPa Calm   1.0mph /  1.6km/h 86% 0.00in /  0mm
00:01 66.1 °F /  18.9 °C 61.8 °F /  16.6 °C 29.97in /  1014.8hPa Calm   1.0mph /  1.6km/h 86% 0.00in /  0mm
00:06 65.8 °F /  18.8 °C 61.8 °F /  16.6 °C 29.98in /  1015.1hPa NW 1.0mph /  1.6km/h 1.0mph /  1.6km/h 87% 0.00in /  0mm
00:11 65.5 °F /  18.6 °C 61.5 °F /  16.4 °C 29.97in /  1014.8hPa Calm   1.0mph /  1.6km/h 87% 0.00in /  0mm
00:16 65.4 °F /  18.6 °C 61.8 °F /  16.6 °C 29.98in /  1015.1hPa NW 1.0mph /  1.6km/h 1.0mph /  1.6km/h 88% 0.00in /  0mm
00:21 65.3 °F /  18.5 °C 61.7 °F /  16.5 °C 29.98in /  1015.1hPa Calm     88% 0.00in /  0mm
00:26 65.0 °F /  18.3 °C 61.4 °F /  16.3 °C 29.98in /  1015.1hPa NW 1.0mph /  1.6km/h 1.0mph /  1.6km/h 88% 0.00in /  0mm
00:31 64.9 °F /  18.3 °C 61.6 °F /  16.4 °C 29.98in /  1015.1hPa NNE 2.0mph /  3.2km/h 2.0mph /  3.2km/h 89% 0.00in /  0mm
00:36 65.2 °F /  18.4 °C 61.9 °F /  16.6 °C 29.99in /  1015.5hPa ENE 1.0mph /  1.6km/h 1.0mph /  1.6km/h 89% 0.00in /  0mm
00:41 65.4 °F /  18.6 °C 61.8 °F /  16.6 °C 29.98in /  1015.1hPa ESE 1.0mph /  1.6km/h 4.0mph /  6.4km/h 88% 0.00in /  0mm
00:46 65.6 °F /  18.7 °C 62.0 °F /  16.7 °C 29.98in /  1015.1hPa ESE 1.0mph /  1.6km/h 1.0mph /  1.6km/h 88% 0.00in /  0mm
00:51 65.8 °F /  18.8 °C 61.8 °F /  16.6 °C 29.99in /  1015.5hPa ESE 1.0mph /  1.6km/h 2.0mph /  3.2km/h 87% 0.00in /  0mm
00:56 65.8 °F /  18.8 °C 62.2 °F /  16.8 °C 29.99in /  1015.5hPa SE 1.0mph /  1.6km/h 2.0mph /  3.2km/h 88% 0.00in /  0mm
01:01 65.8 °F /  18.8 °C 61.8 °F /  16.6 °C 29.99in /  1015.5hPa SE 1.0mph /  1.6km/h 1.0mph /  1.6km/h 87% 0.00in /  0mm
01:06 65.7 °F /  18.7 °C 62.0 °F /  16.7 °C 29.99in /  1015.5hPa Calm     88% 0.00in /  0mm
01:11 65.3 °F /  18.5 °C 61.7 °F /  16.5 °C 29.99in /  1015.5hPa Calm     88% 0.00in /  0mm
01:16 65.2 °F /  18.4 °C 61.9 °F /  16.6 °C 29.98in /  1015.1hPa Calm     89% 0.00in /  0mm
01:21 65.4 °F /  18.6 °C 62.1 °F /  16.7 °C 29.98in /  1015.1hPa Calm     89% 0.00in /  0mm
01:26 65.6 °F /  18.7 °C 62.0 °F /  16.7 °C 29.98in /  1015.1hPa ESE 3.0mph /  4.8km/h 3.0mph /  4.8km/h 88% 0.00in /  0mm
01:31 65.8 °F /  18.8 °C 61.8 °F /  16.6 °C 29.99in /  1015.5hPa East 2.0mph /  3.2km/h 3.0mph /  4.8km/h 87% 0.00in /  0mm
01:37 65.9 °F /  18.8 °C 61.9 °F /  16.6 °C 29.99in /  1015.5hPa East 2.0mph /  3.2km/h 3.0mph /  4.8km/h 87% 0.00in /  0mm
01:42 66.0 °F /  18.9 °C 61.7 °F /  16.5 °C 29.98in /  1015.1hPa East 1.0mph /  1.6km/h 3.0mph /  4.8km/h 86% 0.00in /  0mm
01:47 66.0 °F /  18.9 °C 61.4 °F /  16.3 °C 29.98in /  1015.1hPa East 1.0mph /  1.6km/h 1.0mph /  1.6km/h 85% 0.00in /  0mm
01:52 66.1 °F /  18.9 °C 61.5 °F /  16.4 °C 29.98in /  1015.1hPa ESE 1.0mph /  1.6km/h 1.0mph /  1.6km/h 85% 0.00in /  0mm
01:57 66.1 °F /  18.9 °C 61.1 °F /  16.2 °C 29.98in /  1015.1hPa ESE 2.0mph /  3.2km/h 2.0mph /  3.2km/h 84% 0.00in /  0mm
02:02 66.0 °F /  18.9 °C 61.0 °F /  16.1 °C 29.98in /  1015.1hPa ESE 1.0mph /  1.6km/h 2.0mph /  3.2km/h 84% 0.00in /  0mm
02:07 65.9 °F /  18.8 °C 60.9 °F /  16.1 °C 29.98in /  1015.1hPa ESE 1.0mph /  1.6km/h 1.0mph /  1.6km/h 84% 0.00in /  0mm
02:12 66.0 °F /  18.9 °C 61.0 °F /  16.1 °C 29.98in /  1015.1hPa Calm   1.0mph /  1.6km/h 84% 0.00in /  0mm
02:17 65.8 °F /  18.8 °C 61.2 °F /  16.2 °C 29.98in /  1015.1hPa SE 1.0mph /  1.6km/h 1.0mph /  1.6km/h 85% 0.00in /  0mm
02:22 65.6 °F /  18.7 °C 61.0 °F /  16.1 °C 29.98in /  1015.1hPa East 2.0mph /  3.2km/h 3.0mph /  4.8km/h 85% 0.00in /  0mm
02:27 65.6 °F /  18.7 °C 61.0 °F /  16.1 °C 29.98in /  1015.1hPa ESE 1.0mph /  1.6km/h 2.0mph /  3.2km/h 85% 0.00in /  0mm
02:32 65.5 °F /  18.6 °C 60.9 °F /  16.1 °C 29.98in /  1015.1hPa ESE 1.0mph /  1.6km/h 3.0mph /  4.8km/h 85% 0.00in /  0mm
02:37 65.4 °F /  18.6 °C 60.5 °F /  15.8 °C 29.98in /  1015.1hPa ESE 2.0mph /  3.2km/h 3.0mph /  4.8km/h 84% 0.00in /  0mm
02:42 65.4 °F /  18.6 °C 60.5 °F /  15.8 °C 29.98in /  1015.1hPa ESE 2.0mph /  3.2km/h 3.0mph /  4.8km/h 84% 0.00in /  0mm
02:47 65.3 °F /  18.5 °C 60.3 °F /  15.7 °C 29.98in /  1015.1hPa SE 2.0mph /  3.2km/h 2.0mph /  3.2km/h 84% 0.00in /  0mm
02:52 65.1 °F /  18.4 °C 60.2 °F /  15.7 °C 29.98in /  1015.1hPa ESE 2.0mph /  3.2km/h 2.0mph /  3.2km/h 84% 0.00in /  0mm
02:57 65.1 °F /  18.4 °C 60.2 °F /  15.7 °C 29.98in /  1015.1hPa ESE 2.0mph /  3.2km/h 3.0mph /  4.8km/h 84% 0.00in /  0mm
03:02 65.1 °F /  18.4 °C 60.2 °F /  15.7 °C 29.98in /  1015.1hPa East 2.0mph /  3.2km/h 3.0mph /  4.8km/h 84% 0.00in /  0mm
03:07 65.2 °F /  18.4 °C 60.2 °F /  15.7 °C 29.98in /  1015.1hPa ESE 1.0mph /  1.6km/h 3.0mph /  4.8km/h 84% 0.00in /  0mm
03:12 65.1 °F /  18.4 °C 60.2 °F /  15.7 °C 29.98in /  1015.1hPa Calm   2.0mph /  3.2km/h 84% 0.00in /  0mm
03:17 65.1 °F /  18.4 °C 60.2 °F /  15.7 °C 29.98in /  1015.1hPa Calm   2.0mph /  3.2km/h 84% 0.00in /  0mm
03:22 64.9 °F /  18.3 °C 60.0 °F /  15.6 °C 29.98in /  1015.1hPa Calm   1.0mph /  1.6km/h 84% 0.00in /  0mm
03:27 64.9 °F /  18.3 °C 60.3 °F /  15.7 °C 29.97in /  1014.8hPa Calm   2.0mph /  3.2km/h 85% 0.00in /  0mm
03:32 64.9 °F /  18.3 °C 60.3 °F /  15.7 °C 29.98in /  1015.1hPa ESE 2.0mph /  3.2km/h 2.0mph /  3.2km/h 85% 0.00in /  0mm
03:37 64.8 °F /  18.2 °C 60.2 °F /  15.7 °C 29.98in /  1015.1hPa ESE 2.0mph /  3.2km/h 2.0mph /  3.2km/h 85% 0.00in /  0mm
03:42 64.7 °F /  18.2 °C 60.1 °F /  15.6 °C 29.98in /  1015.1hPa SE 1.0mph /  1.6km/h 2.0mph /  3.2km/h 85% 0.00in /  0mm
03:47 64.6 °F /  18.1 °C 60.3 °F /  15.7 °C 29.98in /  1015.1hPa ESE 1.0mph /  1.6km/h 2.0mph /  3.2km/h 86% 0.00in /  0mm
03:52 64.5 °F /  18.1 °C 60.2 °F /  15.7 °C 29.98in /  1015.1hPa ESE 1.0mph /  1.6km/h 1.0mph /  1.6km/h 86% 0.00in /  0mm
03:57 64.5 °F /  18.1 °C 60.2 °F /  15.7 °C 29.98in /  1015.1hPa ESE 2.0mph /  3.2km/h 2.0mph /  3.2km/h 86% 0.00in /  0mm
04:02 64.5 °F /  18.1 °C 60.2 °F /  15.7 °C 29.98in /  1015.1hPa ESE 2.0mph /  3.2km/h 3.0mph /  4.8km/h 86% 0.00in /  0mm
04:07 64.6 °F /  18.1 °C 60.3 °F /  15.7 °C 29.98in /  1015.1hPa East 1.0mph /  1.6km/h 4.0mph /  6.4km/h 86% 0.00in /  0mm
04:12 64.6 °F /  18.1 °C 60.3 °F /  15.7 °C 29.98in /  1015.1hPa ESE 2.0mph /  3.2km/h 2.0mph /  3.2km/h 86% 0.00in /  0mm
04:17 64.6 °F /  18.1 °C 60.3 °F /  15.7 °C 29.98in /  1015.1hPa SE 1.0mph /  1.6km/h 2.0mph /  3.2km/h 86% 0.00in /  0mm
04:22 64.6 °F /  18.1 °C 60.3 °F /  15.7 °C 29.98in /  1015.1hPa ESE 2.0mph /  3.2km/h 3.0mph /  4.8km/h 86% 0.00in /  0mm
04:27 64.7 °F /  18.2 °C 60.4 °F /  15.8 °C 29.98in /  1015.1hPa ESE 3.0mph /  4.8km/h 4.0mph /  6.4km/h 86% 0.00in /  0mm
04:32 64.9 °F /  18.3 °C 60.6 °F /  15.9 °C 29.98in /  1015.1hPa ESE 2.0mph /  3.2km/h 3.0mph /  4.8km/h 86% 0.00in /  0mm
04:37 64.9 °F /  18.3 °C 60.6 °F /  15.9 °C 29.98in /  1015.1hPa SE 2.0mph /  3.2km/h 3.0mph /  4.8km/h 86% 0.00in /  0mm
04:42 65.0 °F /  18.3 °C 60.7 °F /  15.9 °C 29.98in /  1015.1hPa SE 2.0mph /  3.2km/h 4.0mph /  6.4km/h 86% 0.00in /  0mm
04:48 65.1 °F /  18.4 °C 60.8 °F /  16 °C 29.98in /  1015.1hPa ESE 3.0mph /  4.8km/h 4.0mph /  6.4km/h 86% 0.00in /  0mm
04:53 65.2 °F /  18.4 °C 60.9 °F /  16.1 °C 29.99in /  1015.5hPa ESE 3.0mph /  4.8km/h 4.0mph /  6.4km/h 86% 0.00in /  0mm
04:58 65.0 °F /  18.3 °C 60.7 °F /  15.9 °C 29.98in /  1015.1hPa ESE 3.0mph /  4.8km/h 4.0mph /  6.4km/h 86% 0.00in /  0mm
05:03 64.9 °F /  18.3 °C 60.6 °F /  15.9 °C 29.99in /  1015.5hPa ESE 3.0mph /  4.8km/h 4.0mph /  6.4km/h 86% 0.00in /  0mm
05:08 64.8 °F /  18.2 °C 60.8 °F /  16 °C 29.99in /  1015.5hPa ESE 3.0mph /  4.8km/h 4.0mph /  6.4km/h 87% 0.00in /  0mm
05:13 64.7 °F /  18.2 °C 60.8 °F /  16 °C 29.99in /  1015.5hPa SE 3.0mph /  4.8km/h 5.0mph /  8km/h 87% 0.00in /  0mm
05:18 64.7 °F /  18.2 °C 60.8 °F /  16 °C 29.99in /  1015.5hPa SE 4.0mph /  6.4km/h 5.0mph /  8km/h 87% 0.00in /  0mm
05:23 64.6 °F /  18.1 °C 60.7 °F /  15.9 °C 29.99in /  1015.5hPa ESE 4.0mph /  6.4km/h 5.0mph /  8km/h 87% 0.00in /  0mm
05:28 64.5 °F /  18.1 °C 60.9 °F /  16.1 °C 29.99in /  1015.5hPa ESE 4.0mph /  6.4km/h 5.0mph /  8km/h 88% 0.00in /  0mm
05:33 64.3 °F /  17.9 °C 60.7 °F /  15.9 °C 30.00in /  1015.8hPa ESE 3.0mph /  4.8km/h 4.0mph /  6.4km/h 88% 0.00in /  0mm
05:38 64.1 °F /  17.8 °C 60.8 °F /  16 °C 30.00in /  1015.8hPa SE 3.0mph /  4.8km/h 4.0mph /  6.4km/h 89% 0.00in /  0mm
05:43 64.0 °F /  17.8 °C 60.7 °F /  15.9 °C 30.00in /  1015.8hPa SE 3.0mph /  4.8km/h 5.0mph /  8km/h 89% 0.00in /  0mm
05:48 63.9 °F /  17.7 °C 60.6 °F /  15.9 °C 30.00in /  1015.8hPa SE 2.0mph /  3.2km/h 4.0mph /  6.4km/h 89% 0.00in /  0mm
05:53 63.8 °F /  17.7 °C 60.8 °F /  16 °C 30.00in /  1015.8hPa ESE 3.0mph /  4.8km/h 5.0mph /  8km/h 90% 0.00in /  0mm
05:58 63.8 °F /  17.7 °C 60.8 °F /  16 °C 30.00in /  1015.8hPa SE 3.0mph /  4.8km/h 5.0mph /  8km/h 90% 0.00in /  0mm
06:03 63.6 °F /  17.6 °C 60.6 °F /  15.9 °C 30.00in /  1015.8hPa SE 3.0mph /  4.8km/h 3.0mph /  4.8km/h 90% 0.00in /  0mm
06:08 63.5 °F /  17.5 °C 60.5 °F /  15.8 °C 30.00in /  1015.8hPa SE 4.0mph /  6.4km/h 6.0mph /  9.7km/h 90% 0.00in /  0mm
06:13 63.5 °F /  17.5 °C 60.5 °F /  15.8 °C 30.00in /  1015.8hPa SE 5.0mph /  8km/h 5.0mph /  8km/h 90% 0.00in /  0mm
06:18 63.5 °F /  17.5 °C 60.5 °F /  15.8 °C 30.00in /  1015.8hPa ESE 3.0mph /  4.8km/h 5.0mph /  8km/h 90% 0.00in /  0mm
06:23 63.4 °F /  17.4 °C 60.7 °F /  15.9 °C 30.00in /  1015.8hPa SE 2.0mph /  3.2km/h 4.0mph /  6.4km/h 91% 0.00in /  0mm
06:28 63.4 °F /  17.4 °C 60.7 °F /  15.9 °C 30.01in /  1016.1hPa ESE 3.0mph /  4.8km/h 5.0mph /  8km/h 91% 0.00in /  0mm
06:33 63.4 °F /  17.4 °C 60.7 °F /  15.9 °C 30.01in /  1016.1hPa SE 2.0mph /  3.2km/h 5.0mph /  8km/h 91% 0.00in /  0mm
06:38 63.4 °F /  17.4 °C 60.7 °F /  15.9 °C 30.01in /  1016.1hPa ESE 2.0mph /  3.2km/h 4.0mph /  6.4km/h 91% 0.00in /  0mm
06:44 63.5 °F /  17.5 °C 60.8 °F /  16 °C 30.01in /  1016.1hPa ESE 3.0mph /  4.8km/h 4.0mph /  6.4km/h 91% 0.00in /  0mm
06:49 63.5 °F /  17.5 °C 60.8 °F /  16 °C 30.02in /  1016.5hPa ESE 3.0mph /  4.8km/h 3.0mph /  4.8km/h 91% 0.00in /  0mm
06:54 63.4 °F /  17.4 °C 60.7 °F /  15.9 °C 30.02in /  1016.5hPa ESE 2.0mph /  3.2km/h 3.0mph /  4.8km/h 91% 0.00in /  0mm
06:59 63.3 °F /  17.4 °C 60.6 °F /  15.9 °C 30.02in /  1016.5hPa ESE 2.0mph /  3.2km/h 3.0mph /  4.8km/h 91% 0.00in /  0mm
07:04 63.1 °F /  17.3 °C 60.4 °F /  15.8 °C 30.02in /  1016.5hPa ESE 2.0mph /  3.2km/h 3.0mph /  4.8km/h 91% 0.00in /  0mm
07:09 63.0 °F /  17.2 °C 60.3 °F /  15.7 °C 30.03in /  1016.8hPa ESE 3.0mph /  4.8km/h 3.0mph /  4.8km/h 91% 0.00in /  0mm
07:14 63.0 °F /  17.2 °C 60.6 °F /  15.9 °C 30.03in /  1016.8hPa SE 2.0mph /  3.2km/h 3.0mph /  4.8km/h 92% 0.00in /  0mm
07:19 63.1 °F /  17.3 °C 60.7 °F /  15.9 °C 30.03in /  1016.8hPa ESE 5.0mph /  8km/h 5.0mph /  8km/h 92% 0.00in /  0mm
07:24 63.5 °F /  17.5 °C 60.8 °F /  16 °C 30.03in /  1016.8hPa ESE 4.0mph /  6.4km/h 4.0mph /  6.4km/h 91% 0.00in /  0mm
07:29 64.0 °F /  17.8 °C 61.3 °F /  16.3 °C 30.03in /  1016.8hPa SE 3.0mph /  4.8km/h 5.0mph /  8km/h 91% 0.00in /  0mm
07:34 64.4 °F /  18 °C 61.4 °F /  16.3 °C 30.03in /  1016.8hPa ESE 3.0mph /  4.8km/h 5.0mph /  8km/h 90% 0.00in /  0mm
07:39 64.9 °F /  18.3 °C 61.9 °F /  16.6 °C 30.03in /  1016.8hPa SE 2.0mph /  3.2km/h 4.0mph /  6.4km/h 90% 0.00in /  0mm
07:44 65.3 °F /  18.5 °C 62.0 °F /  16.7 °C 30.04in /  1017.2hPa SE 4.0mph /  6.4km/h 5.0mph /  8km/h 89% 0.00in /  0mm
07:49 65.6 °F /  18.7 °C 62.3 °F /  16.8 °C 30.04in /  1017.2hPa ESE 3.0mph /  4.8km/h 5.0mph /  8km/h 89% 0.00in /  0mm
07:54 65.9 °F /  18.8 °C 62.2 °F /  16.8 °C 30.04in /  1017.2hPa SE 3.0mph /  4.8km/h 4.0mph /  6.4km/h 88% 0.00in /  0mm
07:59 66.2 °F /  19 °C 62.5 °F /  16.9 °C 30.04in /  1017.2hPa SE 3.0mph /  4.8km/h 5.0mph /  8km/h 88% 0.00in /  0mm
08:04 66.5 °F /  19.2 °C 62.5 °F /  16.9 °C 30.05in /  1017.5hPa SE 2.0mph /  3.2km/h 5.0mph /  8km/h 87% 0.00in /  0mm
08:09 66.8 °F /  19.3 °C 62.8 °F /  17.1 °C 30.05in /  1017.5hPa SSE 4.0mph /  6.4km/h 5.0mph /  8km/h 87% 0.00in /  0mm
08:14 67.3 °F /  19.6 °C 63.3 °F /  17.4 °C 30.05in /  1017.5hPa SE 3.0mph /  4.8km/h 5.0mph /  8km/h 87% 0.00in /  0mm
08:19 67.6 °F /  19.8 °C 62.9 °F /  17.2 °C 30.05in /  1017.5hPa SSE 5.0mph /  8km/h 7.0mph /  11.3km/h 85% 0.00in /  0mm
08:24 68.0 °F /  20 °C 63.0 °F /  17.2 °C 30.06in /  1017.8hPa SE 4.0mph /  6.4km/h 5.0mph /  8km/h 84% 0.00in /  0mm
08:29 68.4 °F /  20.2 °C 63.4 °F /  17.4 °C 30.06in /  1017.8hPa SE 6.0mph /  9.7km/h 8.0mph /  12.9km/h 84% 0.00in /  0mm
08:34 68.6 °F /  20.3 °C 63.2 °F /  17.3 °C 30.06in /  1017.8hPa SE 4.0mph /  6.4km/h 6.0mph /  9.7km/h 83% 0.00in /  0mm
08:39 69.0 °F /  20.6 °C 64.0 °F /  17.8 °C 30.06in /  1017.8hPa SSE 3.0mph /  4.8km/h 5.0mph /  8km/h 84% 0.00in /  0mm
08:44 69.2 °F /  20.7 °C 62.8 °F /  17.1 °C 30.06in /  1017.8hPa SSE 7.0mph /  11.3km/h 11.0mph /  17.7km/h 80% 0.00in /  0mm
08:49 69.3 °F /  20.7 °C 63.2 °F /  17.3 °C 30.06in /  1017.8hPa SE 7.0mph /  11.3km/h 9.0mph /  14.5km/h 81% 0.00in /  0mm
08:54 69.5 °F /  20.8 °C 63.1 °F /  17.3 °C 30.07in /  1018.2hPa SE 7.0mph /  11.3km/h 9.0mph /  14.5km/h 80% 0.00in /  0mm
08:59 69.7 °F /  20.9 °C 62.9 °F /  17.2 °C 30.07in /  1018.2hPa SE 6.0mph /  9.7km/h 8.0mph /  12.9km/h 79% 0.00in /  0mm
09:04 70.1 °F /  21.2 °C 63.3 °F /  17.4 °C 30.07in /  1018.2hPa South 7.0mph /  11.3km/h 10.0mph /  16.1km/h 79% 0.00in /  0mm
09:09 70.3 °F /  21.3 °C 63.1 °F /  17.3 °C 30.07in /  1018.2hPa SSE 7.0mph /  11.3km/h 10.0mph /  16.1km/h 78% 0.00in /  0mm
09:14 70.4 °F /  21.3 °C 62.8 °F /  17.1 °C 30.07in /  1018.2hPa SE 8.0mph /  12.9km/h 10.0mph /  16.1km/h 77% 0.00in /  0mm
09:19 70.5 °F /  21.4 °C 62.6 °F /  17 °C 30.07in /  1018.2hPa South 10.0mph /  16.1km/h 11.0mph /  17.7km/h 76% 0.00in /  0mm
09:24 70.8 °F /  21.6 °C 62.9 °F /  17.2 °C 30.07in /  1018.2hPa South 6.0mph /  9.7km/h 9.0mph /  14.5km/h 76% 0.00in /  0mm
09:30 71.2 °F /  21.8 °C 63.3 °F /  17.4 °C 30.08in /  1018.5hPa SSW 8.0mph /  12.9km/h 9.0mph /  14.5km/h 76% 0.00in /  0mm
09:35 71.3 °F /  21.8 °C 62.6 °F /  17 °C 30.08in /  1018.5hPa SE 11.0mph /  17.7km/h 12.0mph /  19.3km/h 74% 0.00in /  0mm
09:40 71.4 °F /  21.9 °C 63.1 °F /  17.3 °C 30.08in /  1018.5hPa SSW 8.0mph /  12.9km/h 11.0mph /  17.7km/h 75% 0.00in /  0mm
09:45 71.7 °F /  22.1 °C 62.6 °F /  17 °C 30.08in /  1018.5hPa SSW 8.0mph /  12.9km/h 11.0mph /  17.7km/h 73% 0.00in /  0mm
09:50 72.2 °F /  22.3 °C 63.1 °F /  17.3 °C 30.08in /  1018.5hPa SE 5.0mph /  8km/h 9.0mph /  14.5km/h 73% 0.00in /  0mm
09:55 72.5 °F /  22.5 °C 63.0 °F /  17.2 °C 30.08in /  1018.5hPa SSW 7.0mph /  11.3km/h 8.0mph /  12.9km/h 72% 0.00in /  0mm
10:00 72.6 °F /  22.6 °C 63.1 °F /  17.3 °C 30.08in /  1018.5hPa SSE 9.0mph /  14.5km/h 11.0mph /  17.7km/h 72% 0.00in /  0mm
10:01 72.6 °F /  22.6 °C 62.7 °F /  17.1 °C 30.08in /  1018.5hPa SE 9.0mph /  14.5km/h 11.0mph /  17.7km/h 71% 0.00in /  0mm
10:06 72.6 °F /  22.6 °C 62.7 °F /  17.1 °C 30.09in /  1018.8hPa SE 9.0mph /  14.5km/h 12.0mph /  19.3km/h 71% 0.00in /  0mm
10:11 72.6 °F /  22.6 °C 63.1 °F /  17.3 °C 30.09in /  1018.8hPa SE 6.0mph /  9.7km/h 11.0mph /  17.7km/h 72% 0.00in /  0mm
10:16 73.1 °F /  22.8 °C 62.7 °F /  17.1 °C 30.09in /  1018.8hPa South 6.0mph /  9.7km/h 8.0mph /  12.9km/h 70% 0.00in /  0mm
10:21 73.5 °F /  23.1 °C 63.5 °F /  17.5 °C 30.09in /  1018.8hPa ESE 3.0mph /  4.8km/h 8.0mph /  12.9km/h 71% 0.00in /  0mm
10:26 73.7 °F /  23.2 °C 62.5 °F /  16.9 °C 30.09in /  1018.8hPa SSE 6.0mph /  9.7km/h 9.0mph /  14.5km/h 68% 0.00in /  0mm
10:31 73.8 °F /  23.2 °C 62.2 °F /  16.8 °C 30.09in /  1018.8hPa SE 7.0mph /  11.3km/h 13.0mph /  20.9km/h 67% 0.00in /  0mm
10:36 74.1 °F /  23.4 °C 63.7 °F /  17.6 °C 30.09in /  1018.8hPa SSE 7.0mph /  11.3km/h 7.0mph /  11.3km/h 70% 0.00in /  0mm
10:41 74.2 °F /  23.4 °C 63.4 °F /  17.4 °C 30.09in /  1018.8hPa SSE 5.0mph /  8km/h 9.0mph /  14.5km/h 69% 0.00in /  0mm
10:46 74.6 °F /  23.7 °C 62.9 °F /  17.2 °C 30.09in /  1018.8hPa ESE 8.0mph /  12.9km/h 9.0mph /  14.5km/h 67% 0.00in /  0mm
10:51 74.6 °F /  23.7 °C 62.1 °F /  16.7 °C 30.09in /  1018.8hPa SE 7.0mph /  11.3km/h 10.0mph /  16.1km/h 65% 0.00in /  0mm
10:56 74.5 °F /  23.6 °C 62.8 °F /  17.1 °C 30.09in /  1018.8hPa SE 9.0mph /  14.5km/h 12.0mph /  19.3km/h 67% 0.00in /  0mm
11:01 74.3 °F /  23.5 °C 62.2 °F /  16.8 °C 30.09in /  1018.8hPa ESE 11.0mph /  17.7km/h 11.0mph /  17.7km/h 66% 0.00in /  0mm
11:06 74.6 °F /  23.7 °C 62.9 °F /  17.2 °C 30.09in /  1018.8hPa South 4.0mph /  6.4km/h 10.0mph /  16.1km/h 67% 0.00in /  0mm
11:12 75.1 °F /  23.9 °C 63.8 °F /  17.7 °C 30.09in /  1018.8hPa SE 2.0mph /  3.2km/h 9.0mph /  14.5km/h 68% 0.00in /  0mm
11:17 75.6 °F /  24.2 °C 63.5 °F /  17.5 °C 30.09in /  1018.8hPa SSW 3.0mph /  4.8km/h 7.0mph /  11.3km/h 66% 0.00in /  0mm
11:22 76.0 °F /  24.4 °C 63.0 °F /  17.2 °C 30.08in /  1018.5hPa SSW 4.0mph /  6.4km/h 7.0mph /  11.3km/h 64% 0.00in /  0mm
11:27 76.1 °F /  24.5 °C 64.8 °F /  18.2 °C 30.08in /  1018.5hPa South 9.0mph /  14.5km/h 10.0mph /  16.1km/h 68% 0.00in /  0mm
11:32 75.7 °F /  24.3 °C 63.1 °F /  17.3 °C 30.08in /  1018.5hPa ESE 6.0mph /  9.7km/h 8.0mph /  12.9km/h 65% 0.00in /  0mm
11:37 75.9 °F /  24.4 °C 63.3 °F /  17.4 °C 30.08in /  1018.5hPa SSE 5.0mph /  8km/h 8.0mph /  12.9km/h 65% 0.00in /  0mm
11:42 75.9 °F /  24.4 °C 62.4 °F /  16.9 °C 30.08in /  1018.5hPa SSE 8.0mph /  12.9km/h 8.0mph /  12.9km/h 63% 0.00in /  0mm
11:47 76.1 °F /  24.5 °C 62.6 °F /  17 °C 30.08in /  1018.5hPa SE 5.0mph /  8km/h 9.0mph /  14.5km/h 63% 0.00in /  0mm
11:52 76.8 °F /  24.9 °C 63.7 °F /  17.6 °C 30.08in /  1018.5hPa WSW 2.0mph /  3.2km/h 5.0mph /  8km/h 64% 0.00in /  0mm
11:57 77.1 °F /  25.1 °C 63.1 °F /  17.3 °C 30.08in /  1018.5hPa SSE 5.0mph /  8km/h 7.0mph /  11.3km/h 62% 0.00in /  0mm
12:02 77.2 °F /  25.1 °C 64.5 °F /  18.1 °C 30.08in /  1018.5hPa SSE 3.0mph /  4.8km/h 11.0mph /  17.7km/h 65% 0.00in /  0mm
12:07 77.2 °F /  25.1 °C 64.1 °F /  17.8 °C 30.08in /  1018.5hPa SE 7.0mph /  11.3km/h 7.0mph /  11.3km/h 64% 0.00in /  0mm
12:12 77.6 °F /  25.3 °C 64.0 °F /  17.8 °C 30.08in /  1018.5hPa South 5.0mph /  8km/h 9.0mph /  14.5km/h 63% 0.00in /  0mm
12:17 77.7 °F /  25.4 °C 63.2 °F /  17.3 °C 30.08in /  1018.5hPa SW 4.0mph /  6.4km/h 5.0mph /  8km/h 61% 0.00in /  0mm
12:22 77.9 °F /  25.5 °C 63.8 °F /  17.7 °C 30.08in /  1018.5hPa East 4.0mph /  6.4km/h 7.0mph /  11.3km/h 62% 0.00in /  0mm
12:27 78.0 °F /  25.6 °C 63.5 °F /  17.5 °C 30.08in /  1018.5hPa WSW 5.0mph /  8km/h 7.0mph /  11.3km/h 61% 0.00in /  0mm
12:32 78.4 °F /  25.8 °C 65.2 °F /  18.4 °C 30.08in /  1018.5hPa SSW 5.0mph /  8km/h 7.0mph /  11.3km/h 64% 0.00in /  0mm
12:37 78.7 °F /  25.9 °C 64.6 °F /  18.1 °C 30.07in /  1018.2hPa SSE 5.0mph /  8km/h 7.0mph /  11.3km/h 62% 0.00in /  0mm
12:42 78.6 °F /  25.9 °C 65.0 °F /  18.3 °C 30.07in /  1018.2hPa SW 3.0mph /  4.8km/h 7.0mph /  11.3km/h 63% 0.00in /  0mm
12:47 79.1 °F /  26.2 °C 64.5 °F /  18.1 °C 30.07in /  1018.2hPa SSE 3.0mph /  4.8km/h 6.0mph /  9.7km/h 61% 0.00in /  0mm
12:52 79.4 °F /  26.3 °C 65.3 °F /  18.5 °C 30.07in /  1018.2hPa SSE 6.0mph /  9.7km/h 7.0mph /  11.3km/h 62% 0.00in /  0mm
12:58 79.6 °F /  26.4 °C 64.5 °F /  18.1 °C 30.07in /  1018.2hPa SE 4.0mph /  6.4km/h 6.0mph /  9.7km/h 60% 0.00in /  0mm
13:03 79.1 °F /  26.2 °C 63.6 °F /  17.6 °C 30.07in /  1018.2hPa East 7.0mph /  11.3km/h 9.0mph /  14.5km/h 59% 0.00in /  0mm
13:08 79.0 °F /  26.1 °C 63.5 °F /  17.5 °C 30.07in /  1018.2hPa WSW 5.0mph /  8km/h 6.0mph /  9.7km/h 59% 0.00in /  0mm
13:13 79.6 °F /  26.4 °C 64.5 °F /  18.1 °C 30.07in /  1018.2hPa SSW 4.0mph /  6.4km/h 7.0mph /  11.3km/h 60% 0.00in /  0mm
13:18 79.8 °F /  26.6 °C 63.2 °F /  17.3 °C 30.06in /  1017.8hPa SE 1.0mph /  1.6km/h 4.0mph /  6.4km/h 57% 0.00in /  0mm
13:23 80.1 °F /  26.7 °C 64.0 °F /  17.8 °C 30.06in /  1017.8hPa ESE 1.0mph /  1.6km/h 4.0mph /  6.4km/h 58% 0.00in /  0mm
13:28 80.0 °F /  26.7 °C 64.4 °F /  18 °C 30.06in /  1017.8hPa ESE 5.0mph /  8km/h 7.0mph /  11.3km/h 59% 0.00in /  0mm
13:33 80.0 °F /  26.7 °C 63.9 °F /  17.7 °C 30.05in /  1017.5hPa SSE 3.0mph /  4.8km/h 7.0mph /  11.3km/h 58% 0.00in /  0mm
13:38 80.5 °F /  26.9 °C 64.4 °F /  18 °C 30.05in /  1017.5hPa WNW 1.0mph /  1.6km/h 7.0mph /  11.3km/h 58% 0.00in /  0mm
13:43 80.5 °F /  26.9 °C 65.3 °F /  18.5 °C 30.05in /  1017.5hPa WSW 5.0mph /  8km/h 5.0mph /  8km/h 60% 0.00in /  0mm
13:48 80.6 °F /  27 °C 65.0 °F /  18.3 °C 30.05in /  1017.5hPa Calm   4.0mph /  6.4km/h 59% 0.00in /  0mm
13:53 81.3 °F /  27.4 °C 65.1 °F /  18.4 °C 30.05in /  1017.5hPa SW 2.0mph /  3.2km/h 6.0mph /  9.7km/h 58% 0.00in /  0mm
13:58 81.7 °F /  27.6 °C 66.0 °F /  18.9 °C 30.05in /  1017.5hPa SW 3.0mph /  4.8km/h 5.0mph /  8km/h 59% 0.00in /  0mm
14:03 81.0 °F /  27.2 °C 64.8 °F /  18.2 °C 30.05in /  1017.5hPa SW 4.0mph /  6.4km/h 6.0mph /  9.7km/h 58% 0.00in /  0mm
14:04 80.8 °F /  27.1 °C 64.7 °F /  18.2 °C 30.05in /  1017.5hPa SW 7.0mph /  11.3km/h 7.0mph /  11.3km/h 58% 0.00in /  0mm
14:09 80.8 °F /  27.1 °C 63.7 °F /  17.6 °C 30.05in /  1017.5hPa WSW 6.0mph /  9.7km/h 6.0mph /  9.7km/h 56% 0.00in /  0mm
14:14 80.9 °F /  27.2 °C 63.8 °F /  17.7 °C 30.05in /  1017.5hPa NE 1.0mph /  1.6km/h 4.0mph /  6.4km/h 56% 0.00in /  0mm
14:20 80.8 °F /  27.1 °C 63.7 °F /  17.6 °C 30.05in /  1017.5hPa Calm   4.0mph /  6.4km/h 56% 0.00in /  0mm
14:25 81.8 °F /  27.7 °C 67.1 °F /  19.5 °C 30.05in /  1017.5hPa SW 3.0mph /  4.8km/h 6.0mph /  9.7km/h 61% 0.00in /  0mm
14:30 82.3 °F /  27.9 °C 65.6 °F /  18.7 °C 30.05in /  1017.5hPa West 4.0mph /  6.4km/h 4.0mph /  6.4km/h 57% 0.00in /  0mm
14:35 81.2 °F /  27.3 °C 65.0 °F /  18.3 °C 30.05in /  1017.5hPa WSW 3.0mph /  4.8km/h 7.0mph /  11.3km/h 58% 0.00in /  0mm
14:40 80.6 °F /  27 °C 64.5 °F /  18.1 °C 30.04in /  1017.2hPa WSW 3.0mph /  4.8km/h 6.0mph /  9.7km/h 58% 0.00in /  0mm
14:45 80.3 °F /  26.8 °C 65.2 °F /  18.4 °C 30.04in /  1017.2hPa West 3.0mph /  4.8km/h 4.0mph /  6.4km/h 60% 0.00in /  0mm
14:50 80.4 °F /  26.9 °C 64.8 °F /  18.2 °C 30.04in /  1017.2hPa SW 2.0mph /  3.2km/h 5.0mph /  8km/h 59% 0.00in /  0mm
14:55 80.3 °F /  26.8 °C 64.2 °F /  17.9 °C 30.04in /  1017.2hPa SSW 2.0mph /  3.2km/h 5.0mph /  8km/h 58% 0.00in /  0mm
15:00 80.3 °F /  26.8 °C 65.2 °F /  18.4 °C 30.04in /  1017.2hPa SSE 2.0mph /  3.2km/h 4.0mph /  6.4km/h 60% 0.00in /  0mm
15:05 80.5 °F /  26.9 °C 65.8 °F /  18.8 °C 30.04in /  1017.2hPa WSW 1.0mph /  1.6km/h 4.0mph /  6.4km/h 61% 0.00in /  0mm
15:10 80.6 °F /  27 °C 65.4 °F /  18.6 °C 30.04in /  1017.2hPa SSE 4.0mph /  6.4km/h 6.0mph /  9.7km/h 60% 0.00in /  0mm
15:15 80.4 °F /  26.9 °C 65.7 °F /  18.7 °C 30.03in /  1016.8hPa South 2.0mph /  3.2km/h 4.0mph /  6.4km/h 61% 0.00in /  0mm
15:20 81.1 °F /  27.3 °C 66.9 °F /  19.4 °C 30.04in /  1017.2hPa South 2.0mph /  3.2km/h 5.0mph /  8km/h 62% 0.00in /  0mm
15:25 82.0 °F /  27.8 °C 66.3 °F /  19.1 °C 30.03in /  1016.8hPa WSW 2.0mph /  3.2km/h 4.0mph /  6.4km/h 59% 0.00in /  0mm
15:30 82.8 °F /  28.2 °C 66.0 °F /  18.9 °C 30.03in /  1016.8hPa SSE 1.0mph /  1.6km/h 4.0mph /  6.4km/h 57% 0.00in /  0mm
15:35 82.7 °F /  28.2 °C 64.9 °F /  18.3 °C 30.03in /  1016.8hPa WSW 3.0mph /  4.8km/h 7.0mph /  11.3km/h 55% 0.00in /  0mm
15:40 82.2 °F /  27.9 °C 64.4 °F /  18 °C 30.03in /  1016.8hPa West 1.0mph /  1.6km/h 5.0mph /  8km/h 55% 0.00in /  0mm
15:45 81.7 °F /  27.6 °C 64.0 °F /  17.8 °C 30.03in /  1016.8hPa WNW 2.0mph /  3.2km/h 3.0mph /  4.8km/h 55% 0.00in /  0mm
15:50 81.2 °F /  27.3 °C 64.0 °F /  17.8 °C 30.02in /  1016.5hPa North 1.0mph /  1.6km/h 2.0mph /  3.2km/h 56% 0.00in /  0mm
15:55 81.2 °F /  27.3 °C 64.0 °F /  17.8 °C 30.03in /  1016.8hPa SSW 1.0mph /  1.6km/h 3.0mph /  4.8km/h 56% 0.00in /  0mm
16:00 81.2 °F /  27.3 °C 64.0 °F /  17.8 °C 30.02in /  1016.5hPa ESE 1.0mph /  1.6km/h 2.0mph /  3.2km/h 56% 0.00in /  0mm
16:05 81.0 °F /  27.2 °C 63.8 °F /  17.7 °C 30.02in /  1016.5hPa Calm   2.0mph /  3.2km/h 56% 0.00in /  0mm
16:10 80.9 °F /  27.2 °C 63.2 °F /  17.3 °C 30.02in /  1016.5hPa East 2.0mph /  3.2km/h 4.0mph /  6.4km/h 55% 0.00in /  0mm
16:15 80.5 °F /  26.9 °C 63.4 °F /  17.4 °C 30.02in /  1016.5hPa East 2.0mph /  3.2km/h 5.0mph /  8km/h 56% 0.00in /  0mm
16:20 80.2 °F /  26.8 °C 62.6 °F /  17 °C 30.02in /  1016.5hPa Calm   3.0mph /  4.8km/h 55% 0.00in /  0mm
16:25 80.4 °F /  26.9 °C 63.8 °F /  17.7 °C 30.01in /  1016.1hPa East 2.0mph /  3.2km/h 2.0mph /  3.2km/h 57% 0.00in /  0mm
16:30 81.0 °F /  27.2 °C 64.8 °F /  18.2 °C 30.01in /  1016.1hPa ESE 1.0mph /  1.6km/h 2.0mph /  3.2km/h 58% 0.00in /  0mm
16:36 81.4 °F /  27.4 °C 63.7 °F /  17.6 °C 30.01in /  1016.1hPa SW 2.0mph /  3.2km/h 3.0mph /  4.8km/h 55% 0.00in /  0mm
16:41 81.3 °F /  27.4 °C 63.1 °F /  17.3 °C 30.01in /  1016.1hPa SE 3.0mph /  4.8km/h 3.0mph /  4.8km/h 54% 0.00in /  0mm
16:46 81.2 °F /  27.3 °C 61.4 °F /  16.3 °C 30.01in /  1016.1hPa WSW 1.0mph /  1.6km/h 1.0mph /  1.6km/h 51% 0.00in /  0mm
16:51 81.7 °F /  27.6 °C 62.9 °F /  17.2 °C 30.01in /  1016.1hPa NW 2.0mph /  3.2km/h 4.0mph /  6.4km/h 53% 0.00in /  0mm
16:56 81.9 °F /  27.7 °C 65.2 °F /  18.4 °C 30.01in /  1016.1hPa WSW 2.0mph /  3.2km/h 3.0mph /  4.8km/h 57% 0.00in /  0mm
17:01 82.3 °F /  27.9 °C 64.5 °F /  18.1 °C 30.01in /  1016.1hPa WSW 3.0mph /  4.8km/h 4.0mph /  6.4km/h 55% 0.00in /  0mm
17:06 82.7 °F /  28.2 °C 63.8 °F /  17.7 °C 30.01in /  1016.1hPa West 2.0mph /  3.2km/h 3.0mph /  4.8km/h 53% 0.00in /  0mm
17:11 83.3 °F /  28.5 °C 65.5 °F /  18.6 °C 30.01in /  1016.1hPa NW 2.0mph /  3.2km/h 2.0mph /  3.2km/h 55% 0.00in /  0mm
17:16 84.0 °F /  28.9 °C 63.9 °F /  17.7 °C 30.01in /  1016.1hPa WSW 1.0mph /  1.6km/h 2.0mph /  3.2km/h 51% 0.00in /  0mm
17:21 84.3 °F /  29.1 °C 65.9 °F /  18.8 °C 30.01in /  1016.1hPa WNW 2.0mph /  3.2km/h 3.0mph /  4.8km/h 54% 0.00in /  0mm
17:26 84.2 °F /  29 °C 63.6 °F /  17.6 °C 30.00in /  1015.8hPa SE 1.0mph /  1.6km/h 2.0mph /  3.2km/h 50% 0.00in /  0mm
17:31 84.7 °F /  29.3 °C 64.6 °F /  18.1 °C 30.00in /  1015.8hPa Calm   2.0mph /  3.2km/h 51% 0.00in /  0mm
17:36 84.9 °F /  29.4 °C 63.0 °F /  17.2 °C 30.00in /  1015.8hPa SSE 2.0mph /  3.2km/h 5.0mph /  8km/h 48% 0.00in /  0mm
17:41 84.6 °F /  29.2 °C 63.3 °F /  17.4 °C 30.00in /  1015.8hPa SW 1.0mph /  1.6km/h 3.0mph /  4.8km/h 49% 0.00in /  0mm
17:46 84.7 °F /  29.3 °C 65.1 °F /  18.4 °C 30.00in /  1015.8hPa SW 1.0mph /  1.6km/h 4.0mph /  6.4km/h 52% 0.00in /  0mm
17:51 84.7 °F /  29.3 °C 62.3 °F /  16.8 °C 30.00in /  1015.8hPa SSW 2.0mph /  3.2km/h 4.0mph /  6.4km/h 47% 0.00in /  0mm
17:56 84.5 °F /  29.2 °C 62.1 °F /  16.7 °C 30.00in /  1015.8hPa SE 1.0mph /  1.6km/h 4.0mph /  6.4km/h 47% 0.00in /  0mm
18:01 83.8 °F /  28.8 °C 62.0 °F /  16.7 °C 29.99in /  1015.5hPa SSE 2.0mph /  3.2km/h 3.0mph /  4.8km/h 48% 0.00in /  0mm
18:06 83.1 °F /  28.4 °C 62.0 °F /  16.7 °C 30.00in /  1015.8hPa SSE 1.0mph /  1.6km/h 3.0mph /  4.8km/h 49% 0.00in /  0mm
18:11 82.8 °F /  28.2 °C 61.1 °F /  16.2 °C 29.99in /  1015.5hPa SW 1.0mph /  1.6km/h 1.0mph /  1.6km/h 48% 0.00in /  0mm
18:17 82.2 °F /  27.9 °C 62.8 °F /  17.1 °C 29.99in /  1015.5hPa West 1.0mph /  1.6km/h 1.0mph /  1.6km/h 52% 0.00in /  0mm
18:22 81.9 °F /  27.7 °C 63.6 °F /  17.6 °C 29.99in /  1015.5hPa Calm     54% 0.00in /  0mm
18:27 81.9 °F /  27.7 °C 63.6 °F /  17.6 °C 29.99in /  1015.5hPa Calm     54% 0.00in /  0mm
18:32 82.0 °F /  27.8 °C 64.3 °F /  17.9 °C 29.99in /  1015.5hPa Calm     55% 0.00in /  0mm
18:37 82.3 °F /  27.9 °C 65.1 °F /  18.4 °C 29.99in /  1015.5hPa Calm     56% 0.00in /  0mm
18:42 82.2 °F /  27.9 °C 65.5 °F /  18.6 °C 29.99in /  1015.5hPa Calm   1.0mph /  1.6km/h 57% 0.00in /  0mm
18:47 81.6 °F /  27.6 °C 65.9 °F /  18.8 °C 29.99in /  1015.5hPa Calm   1.0mph /  1.6km/h 59% 0.00in /  0mm
18:52 81.4 °F /  27.4 °C 64.7 °F /  18.2 °C 29.99in /  1015.5hPa Calm   1.0mph /  1.6km/h 57% 0.00in /  0mm
18:57 81.6 °F /  27.6 °C 63.4 °F /  17.4 °C 29.98in /  1015.1hPa West 1.0mph /  1.6km/h 1.0mph /  1.6km/h 54% 0.00in /  0mm
19:02 82.2 °F /  27.9 °C 65.0 °F /  18.3 °C 29.98in /  1015.1hPa Calm   1.0mph /  1.6km/h 56% 0.00in /  0mm
19:07 82.5 °F /  28.1 °C 63.1 °F /  17.3 °C 29.99in /  1015.5hPa NW 2.0mph /  3.2km/h 2.0mph /  3.2km/h 52% 0.00in /  0mm
19:12 82.7 °F /  28.2 °C 65.4 °F /  18.6 °C 29.99in /  1015.5hPa Calm   1.0mph /  1.6km/h 56% 0.00in /  0mm
19:17 83.0 °F /  28.3 °C 65.2 °F /  18.4 °C 29.99in /  1015.5hPa Calm   1.0mph /  1.6km/h 55% 0.00in /  0mm
19:22 82.7 °F /  28.2 °C 64.4 °F /  18 °C 29.99in /  1015.5hPa NNE 2.0mph /  3.2km/h 2.0mph /  3.2km/h 54% 0.00in /  0mm
19:27 82.0 °F /  27.8 °C 65.3 °F /  18.5 °C 30.00in /  1015.8hPa NNE 1.0mph /  1.6km/h 2.0mph /  3.2km/h 57% 0.00in /  0mm
19:32 81.7 °F /  27.6 °C 65.0 °F /  18.3 °C 30.00in /  1015.8hPa NNE 1.0mph /  1.6km/h 2.0mph /  3.2km/h 57% 0.00in /  0mm
19:37 81.6 °F /  27.6 °C 65.4 °F /  18.6 °C 30.00in /  1015.8hPa NE 2.0mph /  3.2km/h 2.0mph /  3.2km/h 58% 0.00in /  0mm
19:42 81.4 °F /  27.4 °C 65.7 °F /  18.7 °C 30.00in /  1015.8hPa NE 1.0mph /  1.6km/h 2.0mph /  3.2km/h 59% 0.00in /  0mm
19:47 81.2 °F /  27.3 °C 65.0 °F /  18.3 °C 30.00in /  1015.8hPa NE 2.0mph /  3.2km/h 2.0mph /  3.2km/h 58% 0.00in /  0mm
19:52 80.9 °F /  27.2 °C 65.2 °F /  18.4 °C 30.00in /  1015.8hPa NE 2.0mph /  3.2km/h 3.0mph /  4.8km/h 59% 0.00in /  0mm
19:57 80.7 °F /  27.1 °C 66.0 °F /  18.9 °C 30.00in /  1015.8hPa NE 2.0mph /  3.2km/h 2.0mph /  3.2km/h 61% 0.00in /  0mm
20:02 80.5 °F /  26.9 °C 65.8 °F /  18.8 °C 30.00in /  1015.8hPa Calm   1.0mph /  1.6km/h 61% 0.00in /  0mm
20:07 80.3 °F /  26.8 °C 66.1 °F /  18.9 °C 30.01in /  1016.1hPa Calm   1.0mph /  1.6km/h 62% 0.00in /  0mm
20:12 79.8 °F /  26.6 °C 67.0 °F /  19.4 °C 30.01in /  1016.1hPa Calm   1.0mph /  1.6km/h 65% 0.00in /  0mm
20:17 79.1 °F /  26.2 °C 66.3 °F /  19.1 °C 30.01in /  1016.1hPa Calm     65% 0.00in /  0mm
20:22 78.5 °F /  25.8 °C 66.6 °F /  19.2 °C 30.01in /  1016.1hPa Calm     67% 0.00in /  0mm
20:27 77.8 °F /  25.4 °C 66.4 °F /  19.1 °C 30.01in /  1016.1hPa Calm     68% 0.00in /  0mm
20:32 77.0 °F /  25 °C 65.2 °F /  18.4 °C 30.01in /  1016.1hPa Calm     67% 0.00in /  0mm
20:37 76.8 °F /  24.9 °C 65.4 °F /  18.6 °C 30.02in /  1016.5hPa Calm     68% 0.00in /  0mm
20:43 76.6 °F /  24.8 °C 66.1 °F /  18.9 °C 30.02in /  1016.5hPa Calm     70% 0.00in /  0mm
20:48 75.8 °F /  24.3 °C 65.7 °F /  18.7 °C 30.02in /  1016.5hPa Calm     71% 0.00in /  0mm
20:53 75.2 °F /  24 °C 66.0 °F /  18.9 °C 30.02in /  1016.5hPa Calm     73% 0.00in /  0mm
20:58 74.6 °F /  23.7 °C 66.2 °F /  19 °C 30.02in /  1016.5hPa Calm     75% 0.00in /  0mm
21:03 74.3 °F /  23.5 °C 66.2 °F /  19 °C 30.02in /  1016.5hPa NE 6.0mph /  9.7km/h 8.0mph /  12.9km/h 76% 0.00in /  0mm
21:08 74.2 °F /  23.4 °C 66.2 °F /  19 °C 30.02in /  1016.5hPa NNE 5.0mph /  8km/h 6.0mph /  9.7km/h 76% 0.00in /  0mm
21:13 74.4 °F /  23.6 °C 66.0 °F /  18.9 °C 30.02in /  1016.5hPa NE 4.0mph /  6.4km/h 7.0mph /  11.3km/h 75% 0.00in /  0mm
21:18 74.6 °F /  23.7 °C 65.8 °F /  18.8 °C 30.02in /  1016.5hPa NE 2.0mph /  3.2km/h 5.0mph /  8km/h 74% 0.00in /  0mm
21:23 74.5 °F /  23.6 °C 65.7 °F /  18.7 °C 30.02in /  1016.5hPa NE 2.0mph /  3.2km/h 5.0mph /  8km/h 74% 0.00in /  0mm
21:28 74.2 °F /  23.4 °C 65.4 °F /  18.6 °C 30.02in /  1016.5hPa NNE 2.0mph /  3.2km/h 3.0mph /  4.8km/h 74% 0.00in /  0mm
21:33 74.0 °F /  23.3 °C 65.2 °F /  18.4 °C 30.02in /  1016.5hPa NNE 2.0mph /  3.2km/h 5.0mph /  8km/h 74% 0.00in /  0mm
21:38 73.8 °F /  23.2 °C 64.2 °F /  17.9 °C 30.03in /  1016.8hPa ENE 2.0mph /  3.2km/h 4.0mph /  6.4km/h 72% 0.00in /  0mm
21:43 73.6 °F /  23.1 °C 64.0 °F /  17.8 °C 30.03in /  1016.8hPa NE 3.0mph /  4.8km/h 4.0mph /  6.4km/h 72% 0.00in /  0mm
21:48 73.4 °F /  23 °C 63.8 °F /  17.7 °C 30.03in /  1016.8hPa NE 3.0mph /  4.8km/h 4.0mph /  6.4km/h 72% 0.00in /  0mm
21:53 73.3 °F /  22.9 °C 63.7 °F /  17.6 °C 30.02in /  1016.5hPa East 1.0mph /  1.6km/h 3.0mph /  4.8km/h 72% 0.00in /  0mm
21:59 73.1 °F /  22.8 °C 63.5 °F /  17.5 °C 30.03in /  1016.8hPa East 1.0mph /  1.6km/h 2.0mph /  3.2km/h 72% 0.00in /  0mm
22:04 72.8 °F /  22.7 °C 63.7 °F /  17.6 °C 30.03in /  1016.8hPa NNE 1.0mph /  1.6km/h 3.0mph /  4.8km/h 73% 0.00in /  0mm
22:09 72.4 °F /  22.4 °C 64.0 °F /  17.8 °C 30.03in /  1016.8hPa NNE 1.0mph /  1.6km/h 2.0mph /  3.2km/h 75% 0.00in /  0mm
22:14 72.1 °F /  22.3 °C 64.1 °F /  17.8 °C 30.02in /  1016.5hPa Calm   1.0mph /  1.6km/h 76% 0.00in /  0mm
22:19 71.8 °F /  22.1 °C 63.8 °F /  17.7 °C 30.02in /  1016.5hPa Calm     76% 0.00in /  0mm
22:24 71.3 °F /  21.8 °C 63.7 °F /  17.6 °C 30.02in /  1016.5hPa SSE 1.0mph /  1.6km/h 1.0mph /  1.6km/h 77% 0.00in /  0mm
22:29 70.6 °F /  21.4 °C 63.4 °F /  17.4 °C 30.02in /  1016.5hPa Calm   2.0mph /  3.2km/h 78% 0.00in /  0mm
22:34 70.2 °F /  21.2 °C 63.4 °F /  17.4 °C 30.03in /  1016.8hPa Calm     79% 0.00in /  0mm
22:39 69.9 °F /  21.1 °C 63.5 °F /  17.5 °C 30.02in /  1016.5hPa Calm     80% 0.00in /  0mm
22:44 69.5 °F /  20.8 °C 63.4 °F /  17.4 °C 30.02in /  1016.5hPa ESE 2.0mph /  3.2km/h 2.0mph /  3.2km/h 81% 0.00in /  0mm
22:49 69.9 °F /  21.1 °C 63.1 °F /  17.3 °C 30.02in /  1016.5hPa Calm   1.0mph /  1.6km/h 79% 0.00in /  0mm
22:54 69.9 °F /  21.1 °C 63.5 °F /  17.5 °C 30.02in /  1016.5hPa SSE 1.0mph /  1.6km/h 2.0mph /  3.2km/h 80% 0.00in /  0mm
22:59 69.5 °F /  20.8 °C 63.8 °F /  17.7 °C 30.02in /  1016.5hPa SW 1.0mph /  1.6km/h 1.0mph /  1.6km/h 82% 0.00in /  0mm
23:04 69.1 °F /  20.6 °C 63.7 °F /  17.6 °C 30.02in /  1016.5hPa SSW 1.0mph /  1.6km/h 1.0mph /  1.6km/h 83% 0.00in /  0mm
23:09 68.7 °F /  20.4 °C 63.3 °F /  17.4 °C 30.02in /  1016.5hPa Calm   1.0mph /  1.6km/h 83% 0.00in /  0mm
23:14 68.5 °F /  20.3 °C 63.1 °F /  17.3 °C 30.02in /  1016.5hPa Calm   2.0mph /  3.2km/h 83% 0.00in /  0mm
23:19 68.4 °F /  20.2 °C 63.0 °F /  17.2 °C 30.02in /  1016.5hPa ESE 1.0mph /  1.6km/h 1.0mph /  1.6km/h 83% 0.00in /  0mm
23:24 68.4 °F /  20.2 °C 62.7 °F /  17.1 °C 30.02in /  1016.5hPa Calm   1.0mph /  1.6km/h 82% 0.00in /  0mm
23:29 68.2 °F /  20.1 °C 62.8 °F /  17.1 °C 30.03in /  1016.8hPa Calm   1.0mph /  1.6km/h 83% 0.00in /  0mm
23:34 67.9 °F /  19.9 °C 62.5 °F /  16.9 °C 30.03in /  1016.8hPa SW 1.0mph /  1.6km/h 1.0mph /  1.6km/h 83% 0.00in /  0mm
23:39 67.7 °F /  19.8 °C 62.7 °F /  17.1 °C 30.03in /  1016.8hPa NNE 3.0mph /  4.8km/h 3.0mph /  4.8km/h 84% 0.00in /  0mm
23:44 67.6 °F /  19.8 °C 61.9 °F /  16.6 °C 30.03in /  1016.8hPa NNE 2.0mph /  3.2km/h 3.0mph /  4.8km/h 82% 0.00in /  0mm
23:49 67.3 °F /  19.6 °C 62.0 °F /  16.7 °C 30.04in /  1017.2hPa North 2.0mph /  3.2km/h 4.0mph /  6.4km/h 83% 0.00in /  0mm
23:54 67.2 °F /  19.6 °C 62.2 °F /  16.8 °C 30.04in /  1017.2hPa NNW 1.0mph /  1.6km/h 2.0mph /  3.2km/h 84% 0.00in /  0mm
23:59 67.1 °F /  19.5 °C 62.1 °F /  16.7 °C 30.04in /  1017.2hPa North 2.0mph /  3.2km/h 2.0mph /  3.2km/h 84% 0.00in /  0mm
Compliments of Weather Underground